Harvest Peace — V7VE7 — position and weather

sailwx.info

Track history (hours):
 
Tides and Currents Weather Stations Pressure Air Temp Water Temp Dewpoint Dewpoint Depression Visibility Wind Speed Wind Dir Waves Ship Positions

Harvest Peace

Last reported at 2017-Jan-07 09:33 UTC. Time now 2017-Jan-23 23:04 UTC.
Position N 26°11' W 079°22'.
Warning: this ship's position is 16 days out of date.

Length 225 m; draft 13.4 m.

Type: Cargo ship. MMSI: 538004103.

Date/timePositionNaut miles runAvg speedWind from/ knotsBaromVisibWave heightAir tempDewpointWater temp
2017-Jan-07 09:33N 26°11' W 079°22'1413.6
2017-Jan-07 08:33N 25°59' W 079°30'1414.5
2017-Jan-07 07:33N 25°45' W 079°31'1414.4
2017-Jan-07 06:33N 25°30' W 079°31'1713.6
2017-Jan-07 05:17N 25°13' W 079°33'  
2017-Jan-04 02:32N 29°40' W 089°57'15 7.3
2017-Jan-04 00:26N 29°55' W 089°58'7 7.6
2017-Jan-03 23:33N 29°55' W 090°06'7 6.8
2017-Jan-03 22:33N 29°56' W 090°13'9 9.1
2017-Jan-03 21:33N 29°57' W 090°24'  
2016-Dec-31 02:25N 29°60' W 090°28'1 0.0
2016-Dec-29 10:27N 29°60' W 090°27'0 0.0
2016-Dec-28 21:04N 29°60' W 090°26'4 7.2
2016-Dec-28 20:31N 29°57' W 090°23'5 5.6
2016-Dec-28 19:33N 29°58' W 090°17'7 6.6
2016-Dec-28 18:33N 29°57' W 090°10'5 5.3
2016-Dec-28 17:33N 29°57' W 090°03'8 5.6
2016-Dec-28 16:10N 29°52' W 089°57'  
Track history (hours):
 
Tides and Currents Weather Stations Pressure Air Temp Water Temp Dewpoint Dewpoint Depression Visibility Wind Speed Wind Dir Waves Ship Positions

Harvest Peace

Last reported at 2017-Jan-07 09:33 UTC. Time now 2017-Jan-23 23:04 UTC.
Position N 26°11' W 079°22'.
Warning: this ship's position is 16 days out of date.

Length 225 m; draft 13.4 m.

Type: Cargo ship. MMSI: 538004103.

Date/timePositionNaut miles runAvg speedWind from/ knotsBaromVisibWave heightAir tempDewpointWater temp
2017-Jan-07 09:33N 26°11' W 079°22'1413.6
2017-Jan-07 08:33N 25°59' W 079°30'1414.5
2017-Jan-07 07:33N 25°45' W 079°31'1414.4
2017-Jan-07 06:33N 25°30' W 079°31'1713.6
2017-Jan-07 05:17N 25°13' W 079°33'  
2017-Jan-04 02:32N 29°40' W 089°57'15 7.3
2017-Jan-04 00:26N 29°55' W 089°58'7 7.6
2017-Jan-03 23:33N 29°55' W 090°06'7 6.8
2017-Jan-03 22:33N 29°56' W 090°13'9 9.1
2017-Jan-03 21:33N 29°57' W 090°24'  
2016-Dec-31 02:25N 29°60' W 090°28'1 0.0
2016-Dec-29 10:27N 29°60' W 090°27'0 0.0
2016-Dec-28 21:04N 29°60' W 090°26'4 7.2
2016-Dec-28 20:31N 29°57' W 090°23'5 5.6
2016-Dec-28 19:33N 29°58' W 090°17'7 6.6
2016-Dec-28 18:33N 29°57' W 090°10'5 5.3
2016-Dec-28 17:33N 29°57' W 090°03'8 5.6
2016-Dec-28 16:10N 29°52' W 089°57'  

Dump ship's entire track history